Time;durP1;ratioP1;P1;durP2;ratioP2;P2;SDS_P1;SDS_P2;PMS_P1;PMS_P2;Temp;Humidity;BMP_temperature;BMP_pressure;BME280_temperature;BME280_humidity;BME280_pressure;Samples;Min_cycle;Max_cycle;Signal;HPM_P1;HPM_P2
2021/11/30 00:02:39;;;;;;;9.85;1.50;;;5.20;99.90;;;;;;5065678;28;20032;-80
2021/11/30 00:05:31;;;;;;;11.00;1.23;;;5.60;99.90;;;;;;5044156;28;20048;-80
2021/11/30 00:08:31;;;;;;;8.73;1.70;;;5.20;99.90;;;;;;5033011;28;20045;-80
2021/11/30 00:11:27;;;;;;;;;;;;;;;;;;;;;
2021/11/30 00:13:59;;;;;;;8.40;1.40;;;5.20;99.90;;;;;;5025211;28;20140;-80
2021/11/30 00:16:24;;;;;;;8.32;1.70;;;5.20;99.90;;;;;;5051492;28;20053;-80
2021/11/30 00:18:50;;;;;;;6.18;1.60;;;5.20;99.90;;;;;;5045007;28;20079;-80
2021/11/30 00:21:16;;;;;;;13.57;1.73;;;5.30;99.90;;;;;;5032669;28;20051;-80
2021/11/30 00:23:42;;;;;;;7.68;1.55;;;5.80;99.90;;;;;;5048126;28;20041;-80
2021/11/30 00:26:07;;;;;;;9.23;1.40;;;5.30;99.90;;;;;;5034323;28;20056;-77
2021/11/30 00:28:33;;;;;;;7.43;1.65;;;5.30;99.90;;;;;;5032990;28;20036;-79
2021/11/30 00:30:59;;;;;;;6.43;1.48;;;5.30;99.90;;;;;;5051494;28;21161;-78
2021/11/30 00:33:25;;;;;;;8.48;1.50;;;6.20;99.90;;;;;;5058215;28;20078;-78
2021/11/30 00:35:51;;;;;;;11.88;1.88;;;5.30;99.90;;;;;;5035668;28;20041;-78
2021/11/30 00:38:18;;;;;;;6.78;1.73;;;5.30;99.90;;;;;;5035399;28;20039;-75
2021/11/30 00:40:46;;;;;;;13.18;1.67;;;5.30;99.90;;;;;;5054358;28;20077;-76
2021/11/30 00:43:20;;;;;;;7.53;1.42;;;5.30;99.90;;;;;;5036675;28;20048;-76
2021/11/30 00:45:58;;;;;;;7.78;1.55;;;5.30;99.90;;;;;;5053284;28;20044;-77
2021/11/30 00:48:31;;;;;;;7.53;1.67;;;5.40;99.90;;;;;;5035351;28;20052;-76
2021/11/30 00:51:11;;;;;;;7.68;1.40;;;5.20;99.90;;;;;;5053052;28;20048;-74
2021/11/30 00:53:38;;;;;;;9.07;1.92;;;5.20;99.90;;;;;;5038045;28;20033;-74
2021/11/30 00:56:04;;;;;;;8.18;1.65;;;5.50;99.90;;;;;;5035688;28;20424;-74
2021/11/30 00:58:33;;;;;;;5.93;1.60;;;5.10;99.90;;;;;;5054044;28;20393;-75
2021/11/30 01:00:59;;;;;;;12.18;2.03;;;5.10;99.90;;;;;;5048165;28;20060;-73
2021/11/30 01:03:25;;;;;;;7.63;1.60;;;5.70;99.90;;;;;;5045313;28;20489;-74
2021/11/30 01:05:51;;;;;;;8.27;1.85;;;5.00;99.90;;;;;;5028313;28;20045;-73
2021/11/30 01:08:17;;;;;;;7.50;1.90;;;4.90;99.90;;;;;;5030010;28;20500;-74
2021/11/30 01:10:43;;;;;;;10.50;2.50;;;4.70;99.90;;;;;;5043959;28;20100;-77
2021/11/30 01:13:09;;;;;;;11.75;2.20;;;4.90;99.90;;;;;;5055738;28;20037;-76
2021/11/30 01:15:35;;;;;;;11.30;2.22;;;4.90;99.90;;;;;;5068751;28;20366;-76
2021/11/30 01:18:01;;;;;;;11.43;2.75;;;4.80;99.90;;;;;;5052280;28;20049;-76
2021/11/30 01:20:27;;;;;;;9.68;2.35;;;4.80;99.90;;;;;;5034528;28;20508;-75
2021/11/30 01:22:53;;;;;;;10.55;2.30;;;4.80;99.90;;;;;;5042778;28;20056;-76
2021/11/30 01:25:19;;;;;;;10.15;2.30;;;4.80;99.90;;;;;;5047356;28;20114;-76
2021/11/30 01:27:47;;;;;;;9.05;2.33;;;4.70;99.90;;;;;;5052031;28;20116;-75
2021/11/30 01:30:14;;;;;;;7.40;2.00;;;4.60;99.90;;;;;;5034766;28;20041;-76
2021/11/30 01:32:41;;;;;;;12.40;2.47;;;4.80;99.90;;;;;;5035926;28;20576;-75
2021/11/30 01:35:08;;;;;;;8.13;2.28;;;4.70;99.90;;;;;;5052155;28;20093;-76
2021/11/30 01:37:34;;;;;;;10.20;2.40;;;4.70;99.90;;;;;;5052429;28;20048;-77
2021/11/30 01:40:00;;;;;;;10.25;2.25;;;4.70;99.90;;;;;;5035403;28;20041;-76
2021/11/30 01:42:27;;;;;;;8.13;2.28;;;4.70;99.90;;;;;;5035988;28;20488;-76
2021/11/30 01:45:03;;;;;;;9.63;2.22;;;4.80;99.90;;;;;;5068613;28;20131;-75
2021/11/30 01:49:59;;;;;;;7.45;1.90;;;4.80;99.90;;;;;;5051881;28;20053;-75
2021/11/30 01:52:26;;;;;;;8.75;2.08;;;4.80;99.90;;;;;;5035759;28;20041;-75
2021/11/30 01:54:52;;;;;;;9.50;1.80;;;4.80;99.90;;;;;;5035289;28;20052;-75
2021/11/30 01:57:22;;;;;;;8.32;2.00;;;4.80;99.90;;;;;;5051885;28;20037;-75
2021/11/30 01:59:51;;;;;;;5.95;1.80;;;4.80;99.90;;;;;;5053145;28;20043;-75
2021/11/30 02:02:18;;;;;;;11.60;2.35;;;4.80;99.90;;;;;;5046835;28;20043;-75
2021/11/30 02:04:50;;;;;;;11.48;2.20;;;5.10;99.90;;;;;;5051420;28;20505;-75
2021/11/30 02:07:16;;;;;;;7.60;2.53;;;4.90;99.90;;;;;;5035323;28;20539;-76
2021/11/30 02:09:44;;;;;;;7.00;2.22;;;4.80;99.90;;;;;;5034738;28;20052;-75
2021/11/30 02:12:10;;;;;;;8.48;2.40;;;4.90;99.90;;;;;;5035904;28;20120;-76
2021/11/30 02:14:45;;;;;;;7.63;2.38;;;4.90;99.90;;;;;;5041691;28;20509;-76
2021/11/30 02:17:11;;;;;;;7.07;2.65;;;4.90;99.90;;;;;;5052561;28;20044;-75
2021/11/30 02:20:04;;;;;;;12.73;2.80;;;4.90;99.90;;;;;;5051663;28;20040;-75
2021/11/30 02:22:33;;;;;;;8.48;2.72;;;4.90;99.90;;;;;;5032260;28;20067;-75
2021/11/30 02:24:58;;;;;;;5.78;3.00;;;4.90;99.90;;;;;;5047994;28;20060;-76
2021/11/30 02:27:24;;;;;;;7.43;3.15;;;5.00;99.90;;;;;;5053230;28;20043;-75
2021/11/30 02:29:51;;;;;;;10.95;3.90;;;6.00;99.90;;;;;;5034325;28;20037;-76
2021/11/30 02:32:25;;;;;;;7.35;3.28;;;5.00;99.90;;;;;;5050761;28;20090;-75
2021/11/30 02:34:53;;;;;;;8.80;3.65;;;5.00;99.90;;;;;;5052442;28;20516;-76
2021/11/30 02:37:24;;;;;;;8.60;3.83;;;5.90;99.90;;;;;;5051935;28;20200;-76
2021/11/30 02:39:53;;;;;;;9.70;3.80;;;5.10;99.90;;;;;;5051910;28;20048;-76
2021/11/30 02:42:22;;;;;;;7.40;3.53;;;5.40;99.90;;;;;;5051276;28;20094;-76
2021/11/30 02:44:48;;;;;;;6.78;3.25;;;5.20;99.90;;;;;;5051028;28;20036;-76
2021/11/30 02:47:17;;;;;;;10.02;4.00;;;5.20;99.90;;;;;;5051280;28;20098;-76
2021/11/30 02:49:51;;;;;;;8.10;3.60;;;5.20;99.90;;;;;;5050948;28;20045;-76
2021/11/30 02:52:19;;;;;;;5.57;3.72;;;4.50;99.90;;;;;;5038234;28;20037;-76
2021/11/30 02:54:49;;;;;;;6.82;3.58;;;5.30;99.90;;;;;;5049951;28;20037;-76
2021/11/30 02:57:17;;;;;;;6.93;3.22;;;5.30;99.90;;;;;;5051257;28;20112;-76
2021/11/30 02:59:46;;;;;;;6.80;3.58;;;6.30;99.90;;;;;;5051964;28;20095;-75
2021/11/30 03:02:24;;;;;;;5.78;3.30;;;6.00;99.90;;;;;;5049826;28;20079;-76
2021/11/30 03:04:53;;;;;;;5.80;3.60;;;5.40;99.90;;;;;;5050668;28;20045;-76
2021/11/30 03:07:22;;;;;;;8.80;3.60;;;6.20;99.90;;;;;;5034039;28;20469;-76
2021/11/30 03:09:49;;;;;;;5.97;3.85;;;5.50;99.90;;;;;;5050410;28;20120;-76
2021/11/30 03:12:16;;;;;;;5.32;3.90;;;5.50;99.90;;;;;;5050755;28;20072;-76
2021/11/30 03:14:41;;;;;;;7.20;4.20;;;5.50;99.90;;;;;;5034094;28;20060;-75
2021/11/30 03:17:12;;;;;;;6.88;3.65;;;6.30;99.90;;;;;;5051033;28;20072;-76
2021/11/30 03:19:40;;;;;;;5.15;4.22;;;5.60;99.90;;;;;;5017237;28;20033;-75
2021/11/30 03:22:07;;;;;;;7.10;4.28;;;5.60;99.90;;;;;;5013123;28;20103;-75
2021/11/30 03:24:35;;;;;;;5.10;4.20;;;5.60;99.90;;;;;;5049032;28;20479;-75
2021/11/30 03:27:02;;;;;;;5.93;4.60;;;6.40;99.90;;;;;;5052120;28;20072;-76
2021/11/30 03:29:28;;;;;;;7.85;4.60;;;5.70;99.90;;;;;;5033747;28;20083;-75
2021/11/30 03:32:07;;;;;;;8.38;4.38;;;5.70;99.90;;;;;;5051239;28;20033;-75
2021/11/30 03:34:35;;;;;;;7.32;5.03;;;5.80;99.90;;;;;;5033739;28;20043;-75
2021/11/30 03:37:03;;;;;;;6.35;4.90;;;5.80;99.90;;;;;;5050385;28;20037;-76
2021/11/30 03:39:29;;;;;;;7.57;5.20;;;5.80;99.90;;;;;;5034156;28;20067;-75
2021/11/30 03:41:57;;;;;;;7.57;5.65;;;5.90;99.90;;;;;;5051984;28;20037;-75
2021/11/30 03:44:24;;;;;;;7.85;5.72;;;5.90;99.90;;;;;;5051981;28;20108;-77
2021/11/30 03:46:50;;;;;;;6.57;5.43;;;6.00;99.90;;;;;;5033639;28;20063;-76
2021/11/30 03:49:17;;;;;;;8.40;5.30;;;6.00;99.90;;;;;;5067049;28;20049;-77
2021/11/30 03:51:43;;;;;;;10.57;5.78;;;6.00;99.90;;;;;;5052068;28;20041;-76
2021/11/30 03:54:10;;;;;;;8.05;5.47;;;6.10;99.90;;;;;;5052964;28;20072;-75
2021/11/30 03:56:38;;;;;;;7.28;5.72;;;6.10;99.90;;;;;;5035980;28;20029;-76
2021/11/30 03:59:04;;;;;;;9.43;6.00;;;6.20;99.90;;;;;;5051431;28;20049;-75
2021/11/30 04:01:40;;;;;;;9.90;6.28;;;6.20;99.90;;;;;;5050108;28;20086;-76
2021/11/30 04:04:12;;;;;;;8.55;6.20;;;6.20;99.90;;;;;;5050217;28;20056;-77
2021/11/30 04:06:38;;;;;;;9.65;6.25;;;6.30;99.90;;;;;;5046486;28;20382;-76
2021/11/30 04:09:09;;;;;;;9.50;6.68;;;6.30;99.90;;;;;;5035874;28;20049;-76
2021/11/30 04:11:35;;;;;;;11.52;7.07;;;6.40;99.90;;;;;;5055269;28;20505;-75
2021/11/30 04:14:07;;;;;;;11.18;6.72;;;7.30;99.90;;;;;;5037694;28;20040;-76
2021/11/30 04:16:33;;;;;;;10.57;6.88;;;6.40;99.90;;;;;;5054257;28;20119;-76
2021/11/30 04:18:59;;;;;;;11.40;6.97;;;6.50;99.90;;;;;;5037096;28;20127;-75
2021/11/30 04:21:25;;;;;;;11.63;7.00;;;6.70;99.90;;;;;;5054211;28;20059;-76
2021/11/30 04:23:53;;;;;;;14.77;7.35;;;7.40;99.90;;;;;;5037716;28;20048;-75
2021/11/30 04:26:34;;;;;;;15.70;7.47;;;6.60;99.90;;;;;;5054478;28;20049;-75
2021/11/30 04:29:05;;;;;;;16.15;7.38;;;6.70;99.90;;;;;;5055488;28;20128;-76
2021/11/30 04:31:56;;;;;;;16.00;6.57;;;6.60;99.90;;;;;;5037809;28;20492;-76
2021/11/30 04:34:25;;;;;;;17.27;6.75;;;6.50;99.90;;;;;;5053663;28;20048;-75
2021/11/30 04:37:09;;;;;;;16.70;6.10;;;6.80;99.90;;;;;;5053601;28;20045;-76
2021/11/30 04:39:43;;;;;;;15.15;5.22;;;6.90;99.90;;;;;;5037544;28;20040;-76
2021/11/30 04:42:12;;;;;;;16.35;4.78;;;7.00;99.90;;;;;;5054025;28;20551;-76
2021/11/30 04:44:45;;;;;;;15.45;4.18;;;7.70;99.90;;;;;;5052260;28;20033;-76
2021/11/30 04:47:11;;;;;;;14.40;3.88;;;7.60;99.90;;;;;;5053823;28;20420;-76
2021/11/30 04:49:56;;;;;;;20.38;3.83;;;7.10;99.90;;;;;;5032526;28;20516;-75
2021/11/30 04:52:22;;;;;;;19.23;3.38;;;7.30;99.90;;;;;;5039218;28;20108;-77
2021/11/30 04:54:48;;;;;;;21.15;3.35;;;7.30;99.90;;;;;;5036848;28;20037;-77
2021/11/30 04:57:13;;;;;;;17.40;3.83;;;7.80;99.90;;;;;;5054475;28;20036;-76
2021/11/30 04:59:39;;;;;;;31.20;4.07;;;7.40;99.90;;;;;;5054138;28;20063;-76
2021/11/30 05:02:05;;;;;;;25.70;4.43;;;7.40;99.90;;;;;;5052474;28;20033;-76
2021/11/30 05:04:31;;;;;;;23.48;3.65;;;7.50;99.90;;;;;;5053147;28;20032;-76
2021/11/30 05:06:58;;;;;;;26.27;3.47;;;7.50;99.90;;;;;;5054701;28;20044;-76
2021/11/30 05:09:24;;;;;;;29.95;3.00;;;7.90;99.90;;;;;;5054107;28;20040;-76
2021/11/30 05:11:49;;;;;;;27.58;3.05;;;7.60;99.90;;;;;;5052891;28;20094;-77
2021/11/30 05:14:15;;;;;;;30.25;3.60;;;8.30;99.90;;;;;;5032859;28;20045;-77
2021/11/30 05:16:41;;;;;;;24.38;3.90;;;7.60;99.90;;;;;;5042755;28;20036;-77
2021/11/30 05:19:07;;;;;;;27.15;3.40;;;7.60;99.90;;;;;;5051885;28;20083;-77
2021/11/30 05:21:33;;;;;;;35.60;4.00;;;7.60;99.90;;;;;;5038358;28;20453;-77
2021/11/30 05:24:02;;;;;;;26.33;3.30;;;7.60;99.90;;;;;;5034742;28;20069;-77
2021/11/30 05:26:28;;;;;;;21.30;3.05;;;7.60;99.90;;;;;;5034193;28;20116;-77
2021/11/30 05:28:57;;;;;;;29.40;3.80;;;7.60;99.90;;;;;;5054360;28;20076;-77
2021/11/30 05:31:23;;;;;;;18.52;2.70;;;7.60;99.90;;;;;;5018471;28;20043;-77
2021/11/30 05:33:56;;;;;;;23.65;3.60;;;8.30;99.90;;;;;;5051316;28;20033;-77
2021/11/30 05:36:22;;;;;;;29.92;3.45;;;7.60;99.90;;;;;;5043031;28;20515;-77
2021/11/30 05:38:50;;;;;;;19.45;3.00;;;7.70;99.90;;;;;;5038509;28;20417;-76
2021/11/30 05:41:16;;;;;;;18.90;3.08;;;7.70;99.90;;;;;;5035768;28;20040;-77
2021/11/30 05:43:42;;;;;;;24.63;2.92;;;7.70;99.90;;;;;;5027813;28;20033;-76
2021/11/30 05:46:08;;;;;;;27.77;3.67;;;7.80;99.90;;;;;;5038301;28;20045;-77
2021/11/30 05:48:40;;;;;;;23.63;2.90;;;7.80;99.90;;;;;;5048139;28;20048;-77
2021/11/30 05:51:09;;;;;;;28.77;3.15;;;7.70;99.90;;;;;;5063471;28;20405;-78
2021/11/30 05:53:35;;;;;;;26.75;3.38;;;7.80;99.90;;;;;;5056585;28;20115;-77
2021/11/30 05:56:10;;;;;;;21.75;3.05;;;7.80;99.90;;;;;;5022780;28;20049;-77
2021/11/30 05:58:40;;;;;;;27.17;3.60;;;7.40;99.90;;;;;;5020552;28;20754;-77
2021/11/30 06:01:21;;;;;;;21.50;2.85;;;8.30;99.90;;;;;;5021054;28;20029;-77
2021/11/30 06:03:58;;;;;;;27.48;3.75;;;7.90;99.90;;;;;;5043972;28;20083;-77
2021/11/30 06:06:32;;;;;;;27.85;3.35;;;7.60;99.90;;;;;;5051750;28;20051;-77
2021/11/30 06:08:59;;;;;;;23.95;2.80;;;8.00;99.90;;;;;;5038850;28;20512;-77
2021/11/30 06:11:28;;;;;;;23.40;3.60;;;7.90;99.90;;;;;;5034650;28;20489;-76
2021/11/30 06:13:54;;;;;;;32.17;3.72;;;7.90;99.90;;;;;;5051249;28;20045;-76
2021/11/30 06:16:20;;;;;;;37.75;3.92;;;7.90;99.90;;;;;;5035535;28;20374;-76
2021/11/30 06:18:52;;;;;;;30.75;3.85;;;7.90;99.90;;;;;;5053250;28;20477;-77
2021/11/30 06:21:19;;;;;;;29.52;3.50;;;7.90;99.90;;;;;;5051009;28;20048;-77
2021/11/30 06:23:47;;;;;;;33.03;3.60;;;7.90;99.90;;;;;;5059476;28;20043;-78
2021/11/30 06:26:19;;;;;;;32.85;3.67;;;8.00;99.90;;;;;;5035105;28;20475;-77
2021/11/30 06:28:45;;;;;;;36.05;3.88;;;8.00;99.90;;;;;;5034889;28;20078;-78
2021/11/30 06:31:17;;;;;;;28.50;3.97;;;8.00;99.90;;;;;;5052702;28;20049;-78
2021/11/30 06:34:27;;;;;;;25.15;3.63;;;8.50;99.90;;;;;;5035308;28;20066;-78
2021/11/30 06:36:53;;;;;;;30.38;3.30;;;8.00;99.90;;;;;;5030780;28;20063;-78
2021/11/30 06:39:25;;;;;;;30.30;3.15;;;7.90;99.90;;;;;;5019078;28;20099;-78
2021/11/30 06:41:57;;;;;;;31.92;3.72;;;7.90;99.90;;;;;;5033790;28;20567;-76
2021/11/30 06:44:34;;;;;;;30.73;4.00;;;7.90;99.90;;;;;;5033780;28;20521;-77
2021/11/30 06:47:16;;;;;;;;;;;;;;;;;;;;;
2021/11/30 06:49:53;;;;;;;28.73;3.67;;;8.00;99.90;;;;;;5052059;28;20397;-76
2021/11/30 06:52:27;;;;;;;24.60;3.13;;;7.50;99.90;;;;;;5051258;28;20048;-77
2021/11/30 06:55:09;;;;;;;28.63;3.08;;;8.50;99.90;;;;;;5050464;28;20036;-78
2021/11/30 06:57:45;;;;;;;28.63;3.85;;;7.60;99.90;;;;;;5037089;28;20030;-79
2021/11/30 07:00:13;;;;;;;24.60;3.45;;;7.90;99.90;;;;;;5029804;28;20041;-77
2021/11/30 07:02:42;;;;;;;23.30;2.90;;;7.90;99.90;;;;;;5045312;28;20037;-79
2021/11/30 07:05:18;;;;;;;30.80;2.97;;;8.00;99.90;;;;;;5048434;28;20045;-78
2021/11/30 07:11:02;;;;;;;17.27;2.88;;;8.00;99.90;;;;;;4999712;28;20537;-78
2021/11/30 07:13:35;;;;;;;19.08;2.03;;;8.10;99.90;;;;;;5037154;28;20139;-77
2021/11/30 07:16:06;;;;;;;12.90;1.98;;;7.80;99.90;;;;;;5047828;28;20037;-77
2021/11/30 07:18:35;;;;;;;19.33;2.55;;;8.60;99.90;;;;;;5048556;28;20397;-76
2021/11/30 07:21:01;;;;;;;17.50;2.40;;;7.90;99.90;;;;;;5049907;28;20113;-77
2021/11/30 07:23:29;;;;;;;16.35;2.10;;;7.90;99.90;;;;;;5024786;28;20037;-77
2021/11/30 07:25:56;;;;;;;14.43;1.92;;;7.90;99.90;;;;;;5054177;28;20554;-77
2021/11/30 07:28:30;;;;;;;17.60;2.22;;;7.80;99.90;;;;;;5027317;28;20037;-76
2021/11/30 07:31:03;;;;;;;16.63;2.13;;;7.80;99.90;;;;;;5046154;28;20036;-76
2021/11/30 07:33:32;;;;;;;18.73;2.53;;;7.80;99.90;;;;;;5027103;28;20444;-76
2021/11/30 07:35:59;;;;;;;16.90;2.55;;;7.80;99.90;;;;;;5040321;28;20052;-78
2021/11/30 07:38:25;;;;;;;20.63;2.20;;;7.80;99.90;;;;;;5055457;28;20052;-78
2021/11/30 07:40:52;;;;;;;21.45;2.55;;;8.00;99.90;;;;;;5049795;28;20037;-77
2021/11/30 07:43:18;;;;;;;18.40;2.13;;;7.80;99.90;;;;;;5038670;28;20037;-76
2021/11/30 07:45:44;;;;;;;22.15;2.75;;;7.80;99.90;;;;;;5037633;28;20083;-76
2021/11/30 07:48:11;;;;;;;24.92;2.92;;;7.70;99.90;;;;;;5056307;28;20048;-76
2021/11/30 07:50:39;;;;;;;31.23;2.83;;;7.80;99.90;;;;;;5054055;28;20095;-76
2021/11/30 07:53:05;;;;;;;28.67;2.92;;;7.70;99.90;;;;;;5043155;28;20045;-76
2021/11/30 07:55:34;;;;;;;23.35;2.88;;;7.70;99.90;;;;;;5036665;28;20052;-73
2021/11/30 07:58:00;;;;;;;24.95;2.90;;;8.40;99.90;;;;;;5059000;28;20424;-73
2021/11/30 08:00:26;;;;;;;22.25;3.15;;;7.70;99.90;;;;;;5044389;28;20047;-73
2021/11/30 08:02:51;;;;;;;30.83;3.60;;;7.70;99.90;;;;;;5038020;28;20051;-74
2021/11/30 08:05:35;;;;;;;20.30;2.83;;;7.80;99.90;;;;;;5054676;28;20477;-74
2021/11/30 08:08:02;;;;;;;22.63;3.28;;;7.60;99.90;;;;;;5052772;28;20076;-75
2021/11/30 08:10:28;;;;;;;27.52;2.97;;;7.70;99.90;;;;;;5047512;28;20132;-74
2021/11/30 08:12:57;;;;;;;27.02;2.72;;;7.70;99.90;;;;;;5041737;28;20439;-75
2021/11/30 08:15:23;;;;;;;21.08;3.42;;;7.70;99.90;;;;;;5046720;28;20121;-74
2021/11/30 08:17:49;;;;;;;29.05;2.90;;;7.70;99.90;;;;;;5042756;28;20453;-79
2021/11/30 08:20:15;;;;;;;27.58;2.83;;;7.00;99.90;;;;;;5040820;28;20124;-79
2021/11/30 08:22:42;;;;;;;32.50;3.90;;;7.70;99.90;;;;;;5049900;28;20501;-77
2021/11/30 08:25:09;;;;;;;28.15;3.00;;;7.80;99.90;;;;;;5049493;28;20037;-79
2021/11/30 08:27:35;;;;;;;19.65;2.30;;;7.80;99.90;;;;;;5043718;28;20037;-80
2021/11/30 08:30:02;;;;;;;21.90;2.42;;;7.80;99.90;;;;;;5047970;28;20052;-77
2021/11/30 08:32:30;;;;;;;31.05;3.58;;;7.80;99.90;;;;;;5053987;28;20041;-77
2021/11/30 08:34:58;;;;;;;24.00;3.15;;;7.80;99.90;;;;;;5043193;28;20098;-79
2021/11/30 08:37:24;;;;;;;22.88;2.78;;;7.80;99.90;;;;;;5039397;28;20511;-80
2021/11/30 08:39:52;;;;;;;30.63;3.42;;;7.80;99.90;;;;;;5047730;28;20045;-81
2021/11/30 08:42:20;;;;;;;19.75;3.13;;;7.80;99.90;;;;;;5041069;28;20040;-79
2021/11/30 08:44:52;;;;;;;21.42;3.28;;;7.80;99.90;;;;;;5035994;28;20116;-77
2021/11/30 08:47:24;;;;;;;24.08;3.25;;;7.80;99.90;;;;;;5029996;28;20366;-79
2021/11/30 08:49:52;;;;;;;24.77;2.78;;;7.80;99.90;;;;;;5044574;28;20045;-77
2021/11/30 08:52:24;;;;;;;22.58;3.17;;;8.80;99.90;;;;;;5037552;28;20037;-75
2021/11/30 08:54:52;;;;;;;21.40;3.17;;;8.10;99.90;;;;;;5053209;28;20116;-78
2021/11/30 08:57:26;;;;;;;15.45;2.60;;;7.90;99.90;;;;;;5036132;28;20098;-78
2021/11/30 08:59:53;;;;;;;26.83;2.88;;;8.00;99.90;;;;;;5034398;28;20077;-79
2021/11/30 09:02:20;;;;;;;18.52;3.13;;;7.90;99.90;;;;;;5044283;28;20046;-78
2021/11/30 09:04:47;;;;;;;25.83;3.20;;;7.90;99.90;;;;;;5052860;28;20089;-78
2021/11/30 09:07:15;;;;;;;24.25;2.90;;;7.80;99.90;;;;;;5052640;28;20048;-78
2021/11/30 09:09:43;;;;;;;24.45;3.20;;;7.80;99.90;;;;;;5053312;28;20175;-78
2021/11/30 09:12:09;;;;;;;25.15;2.85;;;7.80;99.90;;;;;;5038863;28;20501;-78
2021/11/30 09:14:35;;;;;;;24.10;2.85;;;7.80;99.90;;;;;;5042744;28;20033;-76
2021/11/30 09:17:02;;;;;;;26.85;3.40;;;7.80;99.90;;;;;;5045513;28;20044;-76
2021/11/30 09:19:28;;;;;;;18.70;2.63;;;7.80;99.90;;;;;;5035085;28;20049;-76
2021/11/30 09:21:54;;;;;;;23.23;3.53;;;7.80;99.90;;;;;;5052237;28;20048;-77
2021/11/30 09:24:20;;;;;;;24.02;2.95;;;7.90;99.90;;;;;;5065986;28;20048;-76
2021/11/30 09:26:47;;;;;;;24.73;2.75;;;7.90;99.90;;;;;;5049433;28;20497;-76
2021/11/30 09:29:13;;;;;;;19.92;3.00;;;7.90;99.90;;;;;;5038138;28;20045;-76
2021/11/30 09:31:42;;;;;;;25.92;2.90;;;7.90;99.90;;;;;;5050236;28;20044;-76
2021/11/30 09:34:08;;;;;;;20.15;2.65;;;7.80;99.90;;;;;;5034868;28;20077;-76
2021/11/30 09:36:34;;;;;;;27.60;3.15;;;7.90;99.90;;;;;;5052093;28;20076;-75
2021/11/30 09:39:04;;;;;;;24.45;3.22;;;8.00;99.90;;;;;;5051948;28;20099;-76
2021/11/30 09:41:31;;;;;;;20.08;2.85;;;7.90;99.90;;;;;;5035909;28;20381;-76
2021/11/30 09:43:57;;;;;;;23.38;3.05;;;8.00;99.90;;;;;;5051400;28;20036;-76
2021/11/30 09:46:23;;;;;;;19.52;3.45;;;7.90;99.90;;;;;;5050649;28;20038;-76
2021/11/30 09:48:52;;;;;;;33.15;3.20;;;8.00;99.90;;;;;;5034111;28;20401;-75
2021/11/30 09:51:21;;;;;;;23.73;3.72;;;8.00;99.90;;;;;;5049812;28;20041;-76
2021/11/30 09:53:47;;;;;;;20.98;3.35;;;8.00;99.90;;;;;;5052608;28;20078;-76
2021/11/30 09:56:14;;;;;;;20.50;2.58;;;8.00;99.90;;;;;;5052919;28;20128;-76
2021/11/30 09:58:40;;;;;;;18.90;2.97;;;8.00;99.90;;;;;;5050133;28;20124;-76
2021/11/30 10:01:10;;;;;;;24.50;3.35;;;8.00;99.90;;;;;;5051724;28;20651;-76
2021/11/30 10:03:36;;;;;;;29.58;3.83;;;8.10;99.90;;;;;;5050273;28;20458;-76
2021/11/30 10:06:02;;;;;;;27.33;3.47;;;8.00;99.90;;;;;;5050816;28;20037;-75
2021/11/30 10:08:31;;;;;;;27.67;3.40;;;8.00;99.90;;;;;;5033880;28;20041;-74
2021/11/30 10:10:58;;;;;;;34.05;3.95;;;8.00;99.90;;;;;;5051309;28;20516;-75
2021/11/30 10:13:24;;;;;;;29.10;3.22;;;8.10;99.90;;;;;;5052065;28;20030;-75
2021/11/30 10:15:50;;;;;;;27.25;3.90;;;8.10;99.90;;;;;;5051768;28;20043;-75
2021/11/30 10:18:20;;;;;;;27.77;3.92;;;8.40;99.90;;;;;;5053285;28;20037;-76
2021/11/30 10:20:48;;;;;;;36.42;4.68;;;8.10;99.90;;;;;;5051153;28;20138;-75
2021/11/30 10:23:17;;;;;;;31.75;4.25;;;8.10;99.90;;;;;;5034614;28;20084;-74
2021/11/30 10:25:46;;;;;;;29.58;3.97;;;8.20;99.90;;;;;;5035253;28;20056;-74
2021/11/30 10:28:19;;;;;;;30.98;3.78;;;8.20;99.90;;;;;;5039248;28;20047;-74
2021/11/30 10:30:51;;;;;;;28.10;3.50;;;8.20;99.90;;;;;;5051335;28;20029;-75
2021/11/30 10:33:20;;;;;;;34.08;4.60;;;8.30;99.90;;;;;;5051511;28;20049;-74
2021/11/30 10:36:00;;;;;;;28.83;4.25;;;8.70;99.90;;;;;;5065514;28;20045;-73
2021/11/30 10:38:40;;;;;;;27.65;3.92;;;8.30;99.90;;;;;;5047821;28;20699;-74
2021/11/30 10:41:21;;;;;;;30.30;5.05;;;8.30;99.90;;;;;;5050831;28;20123;-74
2021/11/30 10:43:54;;;;;;;34.97;4.55;;;8.40;99.90;;;;;;5033458;28;20037;-76
2021/11/30 10:46:33;;;;;;;34.08;4.15;;;8.30;99.90;;;;;;5051700;28;20115;-75
2021/11/30 10:48:59;;;;;;;30.95;4.18;;;8.40;99.90;;;;;;5041511;28;20048;-76
2021/11/30 10:51:27;;;;;;;24.98;3.38;;;8.30;99.90;;;;;;5016295;28;20389;-75
2021/11/30 10:53:59;;;;;;;18.52;4.05;;;8.30;99.90;;;;;;5050722;28;20037;-75
2021/11/30 10:56:25;;;;;;;25.23;3.83;;;8.30;99.90;;;;;;5049765;28;20391;-76
2021/11/30 10:58:55;;;;;;;27.60;4.32;;;8.10;99.90;;;;;;5026832;28;20045;-75
2021/11/30 11:01:26;;;;;;;27.02;4.22;;;8.10;99.90;;;;;;5043058;28;20045;-74
2021/11/30 11:04:08;;;;;;;34.67;3.97;;;7.90;99.90;;;;;;5050838;28;20048;-74
2021/11/30 11:06:36;;;;;;;35.20;4.38;;;7.90;99.90;;;;;;5037223;28;20037;-75
2021/11/30 11:09:10;;;;;;;35.75;4.22;;;7.80;99.90;;;;;;5032233;28;20485;-75
2021/11/30 11:11:43;;;;;;;26.57;3.97;;;7.80;99.90;;;;;;5042075;28;20091;-75
2021/11/30 11:14:21;;;;;;;25.63;4.03;;;7.80;99.90;;;;;;5042349;28;20283;-76
2021/11/30 11:17:01;;;;;;;29.08;4.70;;;8.00;99.90;;;;;;5031305;28;20087;-76
2021/11/30 11:19:49;;;;;;;32.03;3.50;;;7.90;99.90;;;;;;5035185;28;20124;-76
2021/11/30 11:22:17;;;;;;;20.63;3.42;;;8.10;99.90;;;;;;5050737;28;20504;-76
2021/11/30 11:24:46;;;;;;;32.13;4.80;;;8.30;99.90;;;;;;5050885;28;20044;-76
2021/11/30 11:27:15;;;;;;;22.23;3.15;;;8.20;99.90;;;;;;5039275;28;20060;-76
2021/11/30 11:29:43;;;;;;;33.70;3.92;;;8.00;99.90;;;;;;5049614;28;20045;-76
2021/11/30 11:32:09;;;;;;;17.45;3.65;;;8.30;99.90;;;;;;5051040;28;20048;-77
2021/11/30 11:34:37;;;;;;;26.10;4.10;;;8.30;99.90;;;;;;5052096;28;20045;-77
2021/11/30 11:37:11;;;;;;;23.02;3.17;;;8.20;99.90;;;;;;5041970;28;20520;-76
2021/11/30 11:39:39;;;;;;;30.65;4.28;;;8.20;99.90;;;;;;5052009;28;20049;-76
2021/11/30 11:42:10;;;;;;;25.77;4.03;;;8.20;99.90;;;;;;5052027;28;20045;-76
2021/11/30 11:44:37;;;;;;;35.90;5.10;;;8.20;99.90;;;;;;5049511;28;20080;-76
2021/11/30 11:47:11;;;;;;;27.25;4.38;;;8.60;99.90;;;;;;5043272;28;20045;-77
2021/11/30 11:49:49;;;;;;;35.53;5.07;;;8.30;99.90;;;;;;5032261;28;20037;-77
2021/11/30 11:52:38;;;;;;;28.67;3.78;;;8.30;99.90;;;;;;5038955;28;20077;-75
2021/11/30 11:55:14;;;;;;;35.90;5.07;;;8.30;99.90;;;;;;5047354;28;20050;-75
2021/11/30 11:58:01;;;;;;;39.85;5.07;;;8.30;99.90;;;;;;5031156;28;20045;-75
2021/11/30 12:00:32;;;;;;;28.63;5.07;;;8.30;99.90;;;;;;5037857;28;20378;-75
2021/11/30 12:03:02;;;;;;;36.05;4.18;;;8.30;99.90;;;;;;5022715;28;20514;-74
2021/11/30 12:05:49;;;;;;;28.23;3.83;;;8.30;99.90;;;;;;5044671;28;20076;-76
2021/11/30 12:08:18;;;;;;;28.77;4.13;;;8.20;99.90;;;;;;5044856;28;20393;-77
2021/11/30 12:10:44;;;;;;;32.40;3.95;;;8.50;99.90;;;;;;5033589;28;20080;-77
2021/11/30 12:13:12;;;;;;;21.60;3.38;;;8.20;99.90;;;;;;5045860;28;20494;-77
2021/11/30 12:16:04;;;;;;;23.48;4.18;;;8.20;99.90;;;;;;5029978;28;20045;-77
2021/11/30 12:18:33;;;;;;;30.08;4.00;;;8.20;99.90;;;;;;5053855;28;20572;-77
2021/11/30 12:21:21;;;;;;;28.48;3.92;;;8.20;99.90;;;;;;5037445;28;20040;-77
2021/11/30 12:23:52;;;;;;;19.85;3.60;;;8.20;99.90;;;;;;5042294;28;20449;-76
2021/11/30 12:26:31;;;;;;;26.90;3.67;;;8.20;99.90;;;;;;5052704;28;20114;-76
2021/11/30 12:28:58;;;;;;;26.10;4.28;;;8.40;99.90;;;;;;5053658;28;20045;-75
2021/11/30 12:31:39;;;;;;;20.85;3.00;;;8.30;99.90;;;;;;5032837;28;20044;-76
2021/11/30 12:34:07;;;;;;;21.20;3.88;;;8.40;99.90;;;;;;5035238;28;20501;-76
2021/11/30 12:36:41;;;;;;;29.92;4.45;;;8.30;99.90;;;;;;5049110;28;20033;-76
2021/11/30 12:39:12;;;;;;;25.58;3.60;;;8.30;99.90;;;;;;5037303;28;20481;-76
2021/11/30 12:41:45;;;;;;;28.27;3.65;;;8.30;99.90;;;;;;5040797;28;20503;-77
2021/11/30 12:44:22;;;;;;;28.02;4.18;;;8.30;99.90;;;;;;5043141;28;20037;-78
2021/11/30 12:46:58;;;;;;;27.20;3.35;;;8.40;99.90;;;;;;5047545;28;20033;-77
2021/11/30 12:49:28;;;;;;;17.92;3.22;;;8.40;99.90;;;;;;5044941;28;20048;-77
2021/11/30 12:52:04;;;;;;;25.92;4.57;;;8.40;99.90;;;;;;5053941;28;20037;-77
2021/11/30 12:54:30;;;;;;;;;;;8.30;99.90;;;;;;5049552;28;20496;-74
2021/11/30 12:56:57;;;;;;;24.38;4.15;;;8.40;99.90;;;;;;5037166;28;19917;-76
2021/11/30 12:59:41;;;;;;;26.52;4.38;;;8.30;99.90;;;;;;5017210;28;20041;-77
2021/11/30 13:02:18;;;;;;;27.17;3.83;;;8.30;99.90;;;;;;5052548;28;20076;-74
2021/11/30 13:04:44;;;;;;;24.10;3.20;;;8.30;99.90;;;;;;5051173;28;20040;-76
2021/11/30 13:07:16;;;;;;;20.42;3.38;;;8.80;99.90;;;;;;5053263;28;20187;-77
2021/11/30 13:09:48;;;;;;;20.98;3.33;;;8.30;99.90;;;;;;5052280;28;20045;-74
2021/11/30 13:12:20;;;;;;;21.23;3.20;;;8.30;99.90;;;;;;5049479;28;20038;-77
2021/11/30 13:14:47;;;;;;;28.38;4.20;;;8.30;99.90;;;;;;5034781;28;20040;-75